Prince Fielder (1B, TEX)

Avg
0.317
HR
18
wOBA
0.361
nERD
2.08

Most Recent Player News

Texas Rangers designated hitter Prince Fielder will sit Wednesday as the team faces the Seattle Mariners.

What It Means:

This appears to be just a scheduled day of rest for Fielder as the team faces left-hander Mike Montgomery. Mitch Moreland will shift to designated hitter as recently-acquired Mike Napoli will bat fifth and play first base.

It makes sense to sit either Moreland or Fielder with Montgomery on the bump. Napoli has had a down year, but he still hits for power against lefties with a .228/.345/.495 slash and a 30.3 percent hard-hit rate. Fielder has hit eight of his 17 home runs against left-handed pitching, but that has been coupled with a strikeout rate that is twice as high as it is against righties.

Source: Baseball Press
Posted on Wednesday, August 19th, 2015 at 11:56am EDT

Prince Fielder Player Profile

Current Stats
Batting Average0.317
Hits157
SLUG0.477
OBP0.380
wOBA0.361
Statistical RankingsRank
Plate Appearances553#19
Runs60#68
Home Runs18#46
RBI73#29
Stolen Bases0#282
nERD2.08#21

Fantasy RankingsRank
Fantasy Score 7.01 #25
Projected Stats
Batting Average0.309
Hits185
SLUG0.466
OBP0.371
wOBA0.354
Statistical RankingsRank
Plate Appearances669#24
Runs73#66
Home Runs21#50
RBI87#30
Stolen Bases0#280
Batting Average0.309#11
OPS0.837#44

Fantasy RankingsRank
Fantasy Score 6.59 #29
Remaining This Season
Batting Average0.269
Hits28
SLUG0.413
OBP0.330
wOBA0.319
Statistical RankingsRank
Plate Appearances116#52
Runs13#59
Home Runs3#54
RBI14#33
Stolen Bases0#229
Batting Average0.269#45
OPS0.743#79

Fantasy RankingsRank
Fantasy Score 4.56 #52

Projections By Game

Date Opponent PA AB BB 1B 2B 3B HR R RBI SB HBP SO AVG
2015-04-06 Oakland 4.43 3.81 0.56 0.75 0.24 0.00 0.14 0.51 0.46 0.00 0.04 0.69 0.281
2015-04-07 Oakland 4.49 3.83 0.59 0.76 0.18 0.00 0.17 0.55 0.55 0.00 0.04 0.76 0.277
2015-04-08 Oakland 4.34 3.91 0.39 0.60 0.17 0.00 0.11 0.32 0.52 0.00 0.01 0.67 0.219
2015-04-09 Oakland 4.35 3.92 0.33 0.54 0.18 0.00 0.08 0.25 0.31 0.00 0.04 0.66 0.196
2015-04-10 Houston 4.26 3.91 0.29 0.77 0.17 0.01 0.06 0.30 0.37 0.00 0.02 0.61 0.247
2015-04-11 Houston 4.30 3.80 0.34 0.77 0.16 0.00 0.07 0.33 0.43 0.00 0.06 0.39 0.251
2015-04-12 Houston 4.27 3.72 0.48 0.55 0.12 0.00 0.09 0.27 0.40 0.00 0.03 0.59 0.196
2015-04-13 L.A. Angels 4.27 3.94 0.29 0.54 0.18 0.00 0.12 0.34 0.52 0.00 0.01 0.69 0.204
2015-04-14 L.A. Angels 4.27 3.94 0.31 0.68 0.16 0.00 0.11 0.39 0.49 0.00 0.01 0.77 0.233
2015-04-15 L.A. Angels 4.34 3.93 0.35 0.58 0.23 0.00 0.07 0.42 0.49 0.00 0.01 0.68 0.215
2015-04-17 Seattle 4.47 3.99 0.43 0.49 0.22 0.00 0.11 0.36 0.44 0.00 0.02 0.59 0.200
2015-04-18 Seattle 4.41 3.97 0.38 0.63 0.14 0.00 0.12 0.31 0.35 0.00 0.02 0.61 0.210
2015-04-19 Seattle 4.46 3.95 0.44 0.76 0.14 0.00 0.09 0.30 0.42 0.00 0.02 0.78 0.233
2015-04-21 Arizona 4.64 4.23 0.32 0.80 0.21 0.00 0.14 0.55 0.56 0.00 0.06 0.56 0.262
2015-04-22 Arizona 4.62 4.02 0.48 0.81 0.22 0.00 0.10 0.57 0.57 0.00 0.03 0.38 0.266
2015-04-24 L.A. Angels 4.44 4.01 0.39 0.65 0.17 0.00 0.07 0.28 0.38 0.00 0.01 0.72 0.212
2015-04-25 L.A. Angels 4.53 4.07 0.39 0.67 0.21 0.00 0.10 0.36 0.50 0.01 0.01 0.62 0.228
2015-04-26 L.A. Angels 4.57 4.18 0.34 0.62 0.23 0.00 0.05 0.34 0.39 0.00 0.00 0.72 0.204
2015-04-27 Seattle 4.30 3.83 0.43 0.65 0.14 0.00 0.05 0.36 0.44 0.00 0.00 0.64 0.209
2015-04-28 Seattle 4.42 3.92 0.42 0.47 0.17 0.00 0.10 0.42 0.51 0.00 0.04 0.75 0.180
2015-04-29 Seattle 4.31 3.90 0.37 0.67 0.21 0.00 0.07 0.39 0.35 0.00 0.02 0.60 0.223
Date Opponent PA AB BB 1B 2B 3B HR R RBI SB HBP SO AVG
2015-05-01 Oakland 4.31 3.80 0.44 0.61 0.18 0.02 0.10 0.42 0.53 0.00 0.02 0.71 0.224
2015-05-02 Oakland 4.37 3.93 0.34 0.60 0.16 0.02 0.12 0.43 0.50 0.00 0.02 0.59 0.218
2015-05-03 Oakland 4.33 3.91 0.36 0.70 0.22 0.00 0.05 0.40 0.33 0.00 0.03 0.55 0.225
2015-05-04 Houston 4.52 3.90 0.53 0.71 0.20 0.00 0.07 0.35 0.41 0.00 0.06 0.54 0.229
2015-05-05 Houston 4.51 3.96 0.44 0.77 0.31 0.01 0.11 0.54 0.46 0.00 0.05 0.52 0.276
2015-05-06 Houston 4.61 3.95 0.55 0.77 0.24 0.01 0.06 0.38 0.40 0.00 0.06 0.45 0.251
2015-05-07 Tampa Bay 4.46 3.99 0.44 0.65 0.26 0.01 0.09 0.42 0.32 0.00 0.01 0.58 0.231
2015-05-08 Tampa Bay 4.50 4.02 0.42 0.52 0.19 0.00 0.09 0.37 0.38 0.00 0.02 0.60 0.186
2015-05-09 Tampa Bay 4.49 4.06 0.35 0.61 0.21 0.01 0.09 0.43 0.39 0.00 0.02 0.43 0.208
2015-05-10 Tampa Bay 4.49 4.03 0.39 0.63 0.16 0.01 0.07 0.34 0.43 0.00 0.01 0.57 0.198
2015-05-11 Kansas City 4.37 3.96 0.34 0.56 0.27 0.02 0.05 0.41 0.47 0.01 0.03 0.59 0.208
2015-05-12 Kansas City 4.41 3.98 0.40 0.77 0.15 0.00 0.06 0.35 0.38 0.00 0.01 0.59 0.226
2015-05-13 Kansas City 4.44 4.06 0.37 0.77 0.13 0.00 0.06 0.37 0.37 0.00 0.00 0.59 0.221
2015-05-14 Kansas City 4.38 3.94 0.38 0.63 0.21 0.00 0.05 0.44 0.41 0.01 0.01 0.55 0.211
2015-05-15 Cleveland 4.44 3.99 0.34 0.66 0.26 0.01 0.11 0.47 0.64 0.00 0.04 0.54 0.247
2015-05-16 Cleveland 4.36 3.93 0.32 0.77 0.17 0.01 0.14 0.53 0.62 0.00 0.03 0.63 0.267
2015-05-17 Cleveland 4.37 3.99 0.30 0.71 0.17 0.00 0.09 0.33 0.53 0.00 0.04 0.70 0.229
2015-05-19 Boston 4.62 4.05 0.49 0.73 0.19 0.00 0.13 0.48 0.59 0.00 0.02 0.66 0.251
2015-05-20 Boston 4.61 4.07 0.44 0.84 0.23 0.01 0.08 0.52 0.61 0.01 0.02 0.58 0.268
2015-05-21 Boston 4.52 4.05 0.38 0.73 0.25 0.00 0.06 0.35 0.66 0.00 0.02 0.55 0.242
2015-05-22 N.Y. Yankees 4.42 4.07 0.26 0.83 0.26 0.00 0.07 0.32 0.44 0.00 0.02 0.55 0.270
2015-05-23 N.Y. Yankees 4.49 4.13 0.27 0.69 0.21 0.00 0.15 0.33 0.65 0.00 0.02 0.63 0.244
2015-05-24 N.Y. Yankees 4.57 4.18 0.27 0.63 0.23 0.00 0.12 0.36 0.61 0.00 0.01 0.50 0.224
2015-05-25 Cleveland 4.63 4.25 0.28 0.72 0.29 0.00 0.19 0.50 0.72 0.00 0.01 0.67 0.271
2015-05-26 Cleveland 4.56 4.25 0.27 0.68 0.26 0.02 0.12 0.49 0.57 0.00 0.00 0.75 0.244
2015-05-27 Cleveland 4.45 4.12 0.24 0.87 0.17 0.03 0.09 0.40 0.43 0.01 0.04 0.73 0.267
2015-05-28 Boston 4.48 4.01 0.34 0.66 0.35 0.00 0.18 0.52 0.87 0.00 0.05 0.59 0.277
2015-05-29 Boston 4.43 4.01 0.33 0.63 0.31 0.00 0.09 0.42 0.65 0.00 0.04 0.53 0.240
2015-05-30 Boston 4.47 4.05 0.34 0.69 0.31 0.01 0.12 0.42 0.70 0.00 0.05 0.49 0.265
2015-05-31 Boston 4.48 4.05 0.33 0.74 0.31 0.01 0.12 0.48 0.81 0.00 0.02 0.52 0.278
Date Opponent PA AB BB 1B 2B 3B HR R RBI SB HBP SO AVG
2015-06-02 Chi. White Sox 4.43 4.07 0.27 0.80 0.24 0.01 0.13 0.57 0.76 0.00 0.05 0.59 0.272
2015-06-04 Chi. White Sox 4.47 3.95 0.44 0.85 0.35 0.00 0.10 0.55 0.69 0.01 0.04 0.53 0.311
2015-06-05 Kansas City 4.50 3.99 0.43 0.75 0.23 0.01 0.09 0.48 0.56 0.00 0.04 0.55 0.253
2015-06-06 Kansas City 4.55 3.97 0.43 0.69 0.23 0.01 0.09 0.43 0.56 0.00 0.10 0.53 0.240
2015-06-07 Kansas City 4.58 4.03 0.41 0.72 0.23 0.01 0.11 0.42 0.63 0.00 0.06 0.49 0.246
2015-06-09 Oakland 4.47 4.03 0.31 0.86 0.19 0.02 0.10 0.40 0.58 0.01 0.07 0.56 0.275
2015-06-10 Oakland 4.49 4.04 0.33 0.85 0.21 0.02 0.10 0.42 0.61 0.01 0.06 0.53 0.278
2015-06-11 Oakland 4.49 4.09 0.34 0.72 0.25 0.00 0.11 0.37 0.45 0.00 0.05 0.55 0.249
2015-06-12 Minnesota 4.51 4.05 0.30 0.81 0.34 0.00 0.10 0.51 0.56 0.00 0.06 0.46 0.283
2015-06-13 Minnesota 4.44 4.04 0.28 0.67 0.25 0.02 0.11 0.37 0.68 0.00 0.04 0.51 0.241
2015-06-14 Minnesota 4.41 4.07 0.21 0.61 0.25 0.03 0.09 0.41 0.53 0.00 0.07 0.53 0.229
2015-06-15 L.A. Dodgers 4.41 4.11 0.21 0.74 0.19 0.02 0.14 0.49 0.67 0.00 0.07 0.50 0.251
2015-06-16 L.A. Dodgers 4.46 4.12 0.22 0.83 0.18 0.03 0.08 0.45 0.64 0.00 0.07 0.50 0.258
2015-06-19 Chi. White Sox 4.38 3.91 0.39 0.77 0.22 0.04 0.04 0.45 0.52 0.00 0.05 0.64 0.261
2015-06-20 Chi. White Sox 4.66 4.11 0.45 0.82 0.22 0.00 0.05 0.37 0.51 0.00 0.05 0.54 0.251
2015-06-21 Chi. White Sox 4.53 4.13 0.35 0.72 0.14 0.03 0.11 0.41 0.44 0.00 0.03 0.58 0.233
2015-06-23 Oakland 4.41 3.99 0.34 0.70 0.19 0.01 0.14 0.47 0.62 0.00 0.03 0.55 0.252
2015-06-24 Oakland 4.44 3.98 0.35 0.67 0.20 0.01 0.12 0.53 0.75 0.00 0.05 0.57 0.244
2015-06-25 Oakland 4.35 4.00 0.26 0.88 0.19 0.03 0.10 0.49 0.70 0.01 0.05 0.52 0.290
2015-06-26 Toronto 4.52 4.11 0.33 0.78 0.29 0.01 0.11 0.45 0.48 0.00 0.04 0.49 0.270
2015-06-27 Toronto 4.60 3.99 0.48 0.71 0.26 0.02 0.14 0.53 0.69 0.00 0.06 0.35 0.262
2015-06-28 Toronto 4.53 3.92 0.50 0.88 0.18 0.02 0.17 0.53 0.73 0.01 0.05 0.42 0.296
2015-06-29 Baltimore 4.52 3.81 0.54 0.68 0.21 0.02 0.16 0.53 0.71 0.00 0.09 0.42 0.264
2015-06-30 Baltimore 4.52 3.86 0.54 0.68 0.16 0.02 0.23 0.58 0.78 0.00 0.05 0.40 0.262
Date Opponent PA AB BB 1B 2B 3B HR R RBI SB HBP SO AVG
2015-07-01 Baltimore 4.48 3.91 0.45 0.81 0.16 0.03 0.14 0.47 0.58 0.01 0.05 0.38 0.270
2015-07-02 Baltimore 4.58 3.85 0.56 0.71 0.19 0.02 0.10 0.47 0.56 0.00 0.05 0.49 0.244
2015-07-03 L.A. Angels 4.37 3.91 0.37 0.78 0.18 0.01 0.06 0.42 0.52 0.00 0.04 0.56 0.238
2015-07-04 L.A. Angels 4.41 3.84 0.49 0.76 0.22 0.02 0.13 0.56 0.69 0.00 0.01 0.44 0.272
2015-07-05 L.A. Angels 4.35 3.90 0.39 0.74 0.17 0.00 0.12 0.38 0.61 0.00 0.02 0.45 0.245
2015-07-07 Arizona 4.41 3.94 0.38 0.81 0.20 0.00 0.13 0.51 0.69 0.01 0.03 0.48 0.273
2015-07-08 Arizona 4.48 3.90 0.44 0.88 0.19 0.03 0.16 0.61 0.93 0.00 0.06 0.43 0.301
2015-07-10 San Diego 4.47 3.92 0.44 0.69 0.24 0.02 0.20 0.62 0.90 0.00 0.03 0.49 0.279
2015-07-11 San Diego 4.40 3.90 0.45 0.67 0.25 0.00 0.16 0.59 0.64 0.00 0.02 0.60 0.266
2015-07-12 San Diego 4.44 3.93 0.46 0.88 0.24 0.00 0.12 0.52 0.59 0.01 0.00 0.54 0.296
2015-07-17 Houston 4.47 4.09 0.30 0.77 0.18 0.00 0.15 0.52 0.52 0.00 0.02 0.56 0.258
2015-07-18 Houston 4.52 4.09 0.39 0.90 0.19 0.01 0.13 0.66 0.54 0.00 0.01 0.39 0.284
2015-07-19 Houston 4.45 3.94 0.45 0.87 0.20 0.01 0.07 0.48 0.59 0.00 0.03 0.46 0.282
2015-07-20 Colorado 4.71 4.29 0.36 1.07 0.22 0.01 0.22 0.85 0.91 0.00 0.03 0.39 0.337
2015-07-21 Colorado 4.66 4.16 0.38 0.90 0.25 0.01 0.25 0.95 1.14 0.00 0.04 0.44 0.323
2015-07-24 L.A. Angels 4.54 4.02 0.46 0.80 0.24 0.01 0.14 0.49 0.61 0.01 0.03 0.41 0.279
2015-07-25 L.A. Angels 4.34 3.88 0.40 0.85 0.23 0.00 0.17 0.48 0.60 0.00 0.01 0.46 0.302
2015-07-26 L.A. Angels 4.34 3.96 0.33 0.94 0.17 0.01 0.15 0.46 0.53 0.00 0.02 0.39 0.301
2015-07-27 N.Y. Yankees 4.52 4.03 0.42 0.85 0.23 0.01 0.16 0.67 0.72 0.00 0.05 0.41 0.291
2015-07-28 N.Y. Yankees 4.34 3.83 0.42 0.70 0.23 0.02 0.14 0.49 0.67 0.00 0.03 0.45 0.265
2015-07-29 N.Y. Yankees 4.37 3.95 0.34 0.73 0.24 0.00 0.12 0.44 0.59 0.00 0.04 0.50 0.259
2015-07-30 N.Y. Yankees 4.45 4.02 0.37 0.82 0.24 0.01 0.14 0.54 0.75 0.00 0.05 0.42 0.283
2015-07-31 San Francisco 4.38 4.00 0.31 0.74 0.21 0.00 0.17 0.45 0.62 0.01 0.03 0.56 0.266
Date Opponent PA AB BB 1B 2B 3B HR R RBI SB HBP SO AVG
2015-08-01 San Francisco 4.40 3.91 0.41 0.78 0.24 0.01 0.08 0.58 0.64 0.00 0.06 0.51 0.273
2015-08-02 San Francisco 4.45 3.94 0.42 0.54 0.22 0.01 0.14 0.48 0.68 0.00 0.04 0.48 0.216
2015-08-03 Houston 4.39 3.81 0.50 0.80 0.18 0.01 0.07 0.55 0.54 0.01 0.04 0.44 0.264
2015-08-04 Houston 4.51 3.98 0.46 0.72 0.23 0.01 0.14 0.66 0.52 0.00 0.02 0.48 0.264
2015-08-05 Houston 4.40 4.02 0.37 0.74 0.19 0.00 0.09 0.46 0.50 0.00 0.00 0.58 0.240
2015-08-07 Seattle 4.52 4.03 0.42 0.76 0.21 0.02 0.16 0.57 0.53 0.00 0.02 0.56 0.271
2015-08-08 Seattle 4.60 4.03 0.49 0.74 0.20 0.01 0.16 0.42 0.61 0.00 0.01 0.47 0.261
2015-08-09 Seattle 4.47 3.95 0.47 0.87 0.18 0.01 0.09 0.42 0.43 0.01 0.01 0.55 0.270
2015-08-11 Minnesota 4.60 4.12 0.38 0.74 0.32 0.00 0.12 0.52 0.79 0.00 0.04 0.58 0.264
2015-08-12 Minnesota 4.58 4.02 0.45 0.77 0.31 0.00 0.14 0.59 0.76 0.00 0.04 0.46 0.274
2015-08-13 Minnesota 4.64 4.13 0.38 0.77 0.33 0.01 0.16 0.57 0.90 0.00 0.02 0.46 0.281
2015-08-14 Tampa Bay 4.41 3.81 0.51 0.76 0.17 0.01 0.14 0.52 0.65 0.00 0.02 0.47 0.262
2015-08-15 Tampa Bay 4.34 3.83 0.45 0.77 0.13 0.01 0.09 0.42 0.43 0.01 0.01 0.58 0.239
2015-08-16 Tampa Bay 4.42 3.87 0.48 0.79 0.13 0.01 0.15 0.52 0.66 0.00 0.02 0.46 0.259
2015-08-17 Seattle 4.40 3.90 0.41 0.81 0.16 0.02 0.17 0.66 0.79 0.01 0.02 0.51 0.285
2015-08-18 Seattle 4.46 4.01 0.37 0.71 0.24 0.04 0.18 0.69 0.80 0.00 0.05 0.55 0.281
2015-08-20 Detroit 4.66 4.05 0.43 0.76 0.32 0.02 0.10 0.52 0.82 0.00 0.06 0.45 0.272
2015-08-21 Detroit 4.58 4.06 0.37 0.86 0.22 0.05 0.13 0.56 0.77 0.00 0.04 0.47 0.288
2015-08-22 Detroit 4.64 4.14 0.38 0.85 0.29 0.01 0.16 0.51 0.77 0.00 0.03 0.37 0.293
2015-08-25 Toronto 4.42 3.98 0.37 0.77 0.25 0.02 0.12 0.55 0.62 0.00 0.06 0.39 0.274
2015-08-26 Toronto 4.23 3.87 0.29 0.86 0.18 0.03 0.11 0.48 0.50 0.01 0.05 0.45 0.286
2015-08-27 Toronto 4.46 3.92 0.41 0.94 0.13 0.03 0.16 0.59 0.71 0.00 0.05 0.47 0.305
2015-08-28 Baltimore 4.38 3.89 0.40 0.70 0.16 0.04 0.11 0.42 0.68 0.00 0.04 0.46 0.248
2015-08-29 Baltimore 4.43 3.90 0.43 0.67 0.20 0.03 0.07 0.51 0.54 0.00 0.04 0.54 0.240
2015-08-30 Baltimore 4.45 3.85 0.44 0.73 0.14 0.04 0.13 0.52 0.67 0.00 0.08 0.43 0.256
2015-08-31 San Diego 4.55 4.17 0.27 0.92 0.20 0.03 0.06 0.37 0.43 0.00 0.06 0.53 0.277
Date Opponent PA AB BB 1B 2B 3B HR R RBI SB HBP SO AVG
2015-09-01 San Diego 4.53 4.26 0.22 0.80 0.18 0.02 0.09 0.41 0.48 0.00 0.02 0.59 0.251
2015-09-02 San Diego 4.55 4.17 0.29 0.80 0.23 0.02 0.16 0.36 0.54 0.00 0.03 0.55 0.285
2015-09-04 L.A. Angels 4.51 4.03 0.36 0.85 0.19 0.01 0.08 0.43 0.53 0.00 0.05 0.61 0.270
2015-09-05 L.A. Angels 4.50 3.88 0.46 0.81 0.19 0.03 0.09 0.44 0.55 0.00 0.07 0.38 0.274
2015-09-06 L.A. Angels 4.41 3.94 0.38 0.85 0.12 0.02 0.15 0.44 0.46 0.00 0.03 0.49 0.275
2015-09-07 Seattle 4.40 3.97 0.31 0.80 0.18 0.03 0.10 0.38 0.48 0.00 0.08 0.49 0.270
2015-09-08 Seattle 4.67 4.11 0.45 0.87 0.29 0.02 0.18 0.54 0.74 0.00 0.04 0.53 0.323
2015-09-09 Seattle 4.52 4.14 0.29 0.80 0.22 0.02 0.15 0.44 0.52 0.00 0.08 0.47 0.281
2015-09-10 Seattle 4.50 4.22 0.21 0.87 0.27 0.02 0.13 0.46 0.53 0.00 0.05 0.57 0.300
2015-09-11 Oakland 4.36 4.00 0.27 0.76 0.17 0.02 0.12 0.44 0.64 0.00 0.03 0.58 0.259

Statlines By Game

Date Opponent PA AB BB 1B 2B 3B HR R RBI SB HBP SO AVG
2015-04-06 Oakland 4 4 0 0 0 0 0 0 0 0 0 1 0.000
2015-04-07 Oakland 4 3 0 2 0 0 0 0 2 0 1 0 0.667
2015-04-08 Oakland 4 3 1 0 1 0 0 0 0 0 0 1 0.333
2015-04-09 Oakland 5 5 0 2 0 0 0 0 1 0 0 0 0.400
2015-04-10 Houston 4 4 0 2 1 0 0 0 0 0 0 0 0.750
2015-04-11 Houston 4 3 1 0 0 0 0 1 0 0 0 0 0.000
2015-04-12 Houston 7 7 0 3 0 0 0 1 0 0 0 0 0.429
2015-04-13 L.A. Angels 4 4 0 2 0 0 0 1 1 0 0 0 0.500
2015-04-14 L.A. Angels 4 4 0 2 0 0 0 0 0 0 0 0 0.500
2015-04-15 L.A. Angels 4 3 1 1 0 0 0 0 0 0 0 0 0.333
2015-04-17 Seattle 4 3 1 1 1 0 0 0 1 0 0 0 0.667
2015-04-18 Seattle 4 4 0 0 0 0 0 0 0 0 0 1 0.000
2015-04-19 Seattle 5 5 0 2 0 0 0 1 1 0 0 2 0.400
2015-04-21 Arizona 5 5 0 0 1 0 1 1 3 0 0 0 0.400
2015-04-22 Arizona 4 3 1 0 0 0 0 1 0 0 0 1 0.000
2015-04-24 L.A. Angels 4 4 0 2 0 0 0 0 1 0 0 0 0.500
2015-04-25 L.A. Angels 4 3 0 1 0 0 0 0 0 0 1 0 0.333
2015-04-26 L.A. Angels 5 5 0 1 0 0 0 0 0 0 0 2 0.200
2015-04-27 Seattle 4 4 0 0 1 0 0 1 0 0 0 1 0.250
2015-04-28 Seattle 4 4 0 1 0 0 0 0 0 0 0 1 0.250
2015-04-29 Seattle 4 4 0 0 0 0 0 0 0 0 0 1 0.000
Date Opponent PA AB BB 1B 2B 3B HR R RBI SB HBP SO AVG
2015-05-01 Oakland 4 4 0 0 1 0 1 1 1 0 0 0 0.500
2015-05-02 Oakland 5 4 1 2 0 0 0 2 0 0 0 0 0.500
2015-05-03 Oakland 5 3 2 2 0 0 0 0 0 0 0 0 0.667
2015-05-04 Houston 4 4 0 0 1 0 0 0 0 0 0 0 0.250
2015-05-05 Houston 4 4 0 0 1 0 0 0 2 0 0 1 0.250
2015-05-06 Houston 4 3 1 1 0 0 0 1 0 0 0 1 0.333
2015-05-07 Tampa Bay 5 5 0 1 0 0 0 0 1 0 0 1 0.200
2015-05-08 Tampa Bay 4 4 0 1 0 0 0 0 0 0 0 2 0.250
2015-05-09 Tampa Bay 5 5 0 2 0 0 0 0 0 0 0 0 0.400
2015-05-10 Tampa Bay 4 3 1 0 0 0 0 0 0 0 0 0 0.000
2015-05-11 Kansas City 5 5 0 1 0 0 1 1 1 0 0 1 0.400
2015-05-12 Kansas City 5 4 0 1 0 0 0 0 2 0 0 0 0.250
2015-05-13 Kansas City 4 4 0 2 0 0 1 1 2 0 0 0 0.750
2015-05-14 Kansas City 4 2 0 1 0 0 0 0 1 0 2 0 0.500
2015-05-15 Cleveland 5 4 0 0 0 0 1 1 2 0 1 0 0.250
2015-05-16 Cleveland 5 5 0 1 0 0 0 0 0 0 0 2 0.200
2015-05-17 Cleveland 4 4 0 2 0 0 0 1 1 0 0 0 0.500
2015-05-19 Boston 4 4 0 1 1 0 0 0 0 0 0 0 0.500
2015-05-20 Boston 4 3 1 1 0 0 0 0 0 0 0 0 0.333
2015-05-21 Boston 4 4 0 0 0 0 0 0 0 0 0 1 0.000
2015-05-22 N.Y. Yankees 5 5 0 0 0 0 2 2 4 0 0 0 0.400
2015-05-23 N.Y. Yankees 5 4 1 2 0 0 1 3 3 0 0 1 0.750
2015-05-24 N.Y. Yankees 5 5 0 2 1 0 0 0 2 0 0 2 0.600
2015-05-25 Cleveland 5 5 0 1 1 0 1 3 3 0 0 1 0.600
2015-05-26 Cleveland 5 5 0 1 1 0 1 1 3 0 0 0 0.600
2015-05-27 Cleveland 4 4 0 1 0 0 0 0 0 0 0 1 0.250
2015-05-28 Boston 4 4 0 0 0 0 0 0 0 0 0 1 0.000
2015-05-29 Boston 4 4 0 2 0 0 0 0 0 0 0 0 0.500
2015-05-30 Boston 5 4 0 1 0 0 0 0 0 0 1 0 0.250
2015-05-31 Boston 5 4 1 1 0 0 0 1 0 0 0 1 0.250
Date Opponent PA AB BB 1B 2B 3B HR R RBI SB HBP SO AVG
2015-06-02 Chi. White Sox 5 5 0 1 0 0 0 1 1 0 0 0 0.200
2015-06-04 Chi. White Sox 5 4 1 2 0 0 0 0 1 0 0 1 0.500
2015-06-05 Kansas City 4 4 0 0 0 0 0 0 0 0 0 2 0.000
2015-06-06 Kansas City 5 3 2 2 0 0 0 1 0 0 0 0 0.667
2015-06-07 Kansas City 4 3 1 0 1 0 0 0 0 0 0 0 0.333
2015-06-09 Oakland 4 4 0 1 0 0 0 0 1 0 0 0 0.250
2015-06-10 Oakland 5 3 0 0 0 0 0 0 1 0 1 2 0.000
2015-06-11 Oakland 3 2 1 0 0 0 0 0 0 0 0 0 0.000
2015-06-12 Minnesota 4 3 1 1 0 0 0 2 0 0 0 0 0.333
2015-06-13 Minnesota 5 5 0 2 0 0 0 1 1 0 0 0 0.400
2015-06-14 Minnesota 4 3 1 0 0 0 0 0 1 0 0 0 0.000
2015-06-15 L.A. Dodgers 4 4 0 1 0 0 0 1 1 0 0 0 0.250
2015-06-16 L.A. Dodgers 4 3 1 1 0 0 0 1 1 0 0 0 0.333
2015-06-17 L.A. Dodgers 4 4 0 0 1 0 1 2 1 0 0 0 0.500
2015-06-19 Chi. White Sox 4 3 1 1 0 0 0 0 0 0 0 1 0.333
2015-06-20 Chi. White Sox 4 4 0 0 0 0 0 0 0 0 0 3 0.000
2015-06-21 Chi. White Sox 5 2 3 0 1 0 0 0 0 0 0 1 0.500
2015-06-23 Oakland 5 4 1 0 1 0 0 1 0 0 0 0 0.250
2015-06-24 Oakland 4 3 1 2 0 0 0 0 0 0 0 0 0.667
2015-06-25 Oakland 4 4 0 1 1 0 0 1 0 0 0 0 0.500
2015-06-26 Toronto 4 4 0 0 1 0 1 1 1 0 0 0 0.500
2015-06-27 Toronto 4 4 0 2 0 0 0 0 0 0 0 0 0.500
2015-06-28 Toronto 5 4 1 2 0 0 0 1 0 0 0 0 0.500
2015-06-29 Baltimore 5 5 0 1 0 0 0 1 0 0 0 0 0.200
2015-06-30 Baltimore 5 4 1 1 0 0 0 0 1 0 0 1 0.250
Date Opponent PA AB BB 1B 2B 3B HR R RBI SB HBP SO AVG
2015-07-01 Baltimore 4 4 0 0 0 0 0 0 0 0 0 1 0.000
2015-07-02 Baltimore 4 3 1 2 0 0 0 0 0 0 0 0 0.667
2015-07-03 L.A. Angels 4 4 0 1 1 0 0 1 0 0 0 0 0.500
2015-07-04 L.A. Angels 4 4 0 1 0 0 0 0 0 0 0 0 0.250
2015-07-05 L.A. Angels 5 5 0 1 0 0 1 1 1 0 0 0 0.400
2015-07-07 Arizona 4 3 1 0 0 0 0 0 0 0 0 0 0.000
2015-07-08 Arizona 5 5 0 2 0 0 0 0 1 0 0 0 0.400
2015-07-10 San Diego 4 3 0 0 0 0 1 1 2 0 0 0 0.333
2015-07-11 San Diego 4 4 0 1 0 0 0 0 1 0 0 0 0.250
2015-07-12 San Diego 4 4 0 0 0 0 0 0 0 0 0 0 0.000
2015-07-17 Houston 5 5 0 2 0 0 0 0 0 0 0 0 0.400
2015-07-18 Houston 5 5 0 1 0 0 0 0 0 0 0 1 0.200
2015-07-19 Houston 4 4 0 0 1 0 0 0 0 0 0 2 0.250
2015-07-20 Colorado 5 4 1 2 0 0 0 1 3 0 0 0 0.500
2015-07-21 Colorado 5 4 1 1 0 0 1 1 1 0 0 1 0.500
2015-07-22 Colorado 1 0 1 0 0 0 0 0 0 0 0 0 0.000
2015-07-24 L.A. Angels 4 3 1 0 0 0 0 0 0 0 0 0 0.000
2015-07-25 L.A. Angels 5 4 1 1 0 0 0 0 0 0 0 1 0.250
2015-07-26 L.A. Angels 5 3 1 1 0 0 0 2 0 0 1 0 0.333
2015-07-27 N.Y. Yankees 4 4 0 1 0 0 0 0 0 0 0 2 0.250
2015-07-28 N.Y. Yankees 4 3 1 0 0 0 0 1 0 0 0 0 0.000
2015-07-29 N.Y. Yankees 4 3 1 1 0 0 0 1 0 0 0 0 0.333
2015-07-30 N.Y. Yankees 4 4 0 0 0 0 0 0 1 0 0 0 0.000
2015-07-31 San Francisco 4 4 0 0 0 0 0 0 0 0 0 3 0.000
Date Opponent PA AB BB 1B 2B 3B HR R RBI SB HBP SO AVG
2015-08-01 San Francisco 6 5 1 1 2 0 0 2 0 0 0 1 0.600
2015-08-02 San Francisco 4 4 0 1 0 0 0 0 0 0 0 0 0.250
2015-08-03 Houston 5 5 0 2 0 0 0 2 2 0 0 0 0.400
2015-08-04 Houston 4 4 0 0 0 0 1 1 1 0 0 0 0.250
2015-08-05 Houston 4 3 0 0 0 0 0 0 1 0 0 2 0.000
2015-08-07 Seattle 4 4 0 0 0 0 0 0 0 0 0 1 0.000
2015-08-08 Seattle 6 6 0 0 1 0 1 2 3 0 0 1 0.333
2015-08-09 Seattle 5 4 1 2 0 0 0 0 0 0 0 0 0.500
2015-08-11 Minnesota 4 4 0 2 0 0 0 0 0 0 0 0 0.500
2015-08-12 Minnesota 3 3 0 1 0 0 0 0 1 0 0 0 0.333
2015-08-13 Minnesota 4 3 1 1 0 0 0 1 1 0 0 0 0.333
2015-08-14 Tampa Bay 4 3 1 0 0 0 0 0 0 0 0 1 0.000
2015-08-15 Tampa Bay 5 5 0 1 1 0 0 1 1 0 0 0 0.400
2015-08-16 Tampa Bay 4 4 0 0 0 0 0 0 0 0 0 1 0.000
2015-08-17 Seattle 5 4 0 2 0 0 0 0 0 0 1 1 0.500
2015-08-18 Seattle 4 4 0 1 0 0 0 0 0 0 0 1 0.250
2015-08-20 Detroit 4 4 0 0 0 0 0 0 0 0 0 0 0.000
2015-08-21 Detroit 4 3 0 1 0 0 0 0 1 0 0 0 0.333
2015-08-22 Detroit 4 4 0 1 0 0 0 1 1 0 0 0 0.250
2015-08-25 Toronto 5 5 0 0 0 0 0 0 0 0 0 0 0.000
2015-08-26 Toronto 4 4 0 1 0 0 0 0 0 0 0 0 0.250
2015-08-27 Toronto 4 4 0 1 0 0 0 0 0 0 0 2 0.250
2015-08-28 Baltimore 4 4 0 1 0 0 0 0 0 0 0 0 0.250
2015-08-29 Baltimore 4 4 0 1 0 0 0 0 0 0 0 0 0.250
2015-08-30 Baltimore 4 4 0 2 0 0 0 0 0 0 0 0 0.500
2015-08-31 San Diego 4 3 0 0 1 0 0 0 0 0 1 0 0.333

DFS Performance

  FanDuel DraftKings FantasyFeud DraftDay FantasyAces Draftster FantasyScore
Date Opponent FP Value FP Value FP Value FP Value FP Value FP Value FP Value
2015-04-06 Oakland -1 -0.3 0 0 -4 0 -4 -0.4 -0.5 -0.1 -0.75 -0.1 0 0
2015-04-07 Oakland 4.75 1.2 12 2.9 5.5 0.8 24 2.6 5 1.1 5 0.7 5 1.2
2015-04-08 Oakland 2.5 0.7 7 1.6 0.5 0.1 13 1.3 2.5 0.5 2.25 0.3 3 0.7
2015-04-09 Oakland 2.25 0.6 8 1.7 1 0.1 12 1.2 3.25 0.7 3 0.5 3 0.7
2015-04-10 Houston 3.75 1 11 2.3 3 0.4 19 1.8 4 0.8 4 0.6 4 0.9
2015-04-11 Houston 1.25 0.3 4 0.8 -1 -0.1 7 0.7 2.25 0.5 2 0.3 2 0.5
2015-04-12 Houston 3 0.8 11 2.4 0.5 0.1 16 1.5 4.25 0.9 4 0.6 4 0.9
2015-04-13 L.A. Angels 3.5 0.9 10 2.2 3.5 0.5 18 1.7 4.5 0.9 4 0.6 4 0.9
2015-04-14 L.A. Angels 1.5 0.4 6 1.2 0 0 8 0.8 2 0.4 2 0.3 2 0.5
2015-04-15 L.A. Angels 1.5 0.4 5 1 -0.5 -0.1 8 0.8 2 0.4 2 0.3 2 0.5
2015-04-17 Seattle 4.75 1.3 12 2.8 4.5 0.6 24 2.3 5.25 1.1 5 0.8 5 1.2
2015-04-18 Seattle -1 -0.3 0 0 -4 -0.6 -4 -0.4 -0.5 -0.1 -0.75 -0.1 0 0
2015-04-19 Seattle 3.25 0.9 10 2.3 2.5 0.3 17 1.6 3.5 0.7 2.5 0.4 4 0.9
2015-04-21 Arizona 9.25 2.6 23 4.7 10.5 1.4 47 4.6 11 2.2 10 1.5 10 2.3
2015-04-22 Arizona 1.25 0.3 4 0.9 -1 -0.1 7 0.7 1.75 0.4 1.25 0.2 2 0.5
2015-04-24 L.A. Angels 2.5 0.7 8 2 2 0.3 13 1.3 3.25 0.7 3 0.5 3 0.7
2015-04-25 L.A. Angels 1.5 0.4 5 1.2 -0.5 -0.1 8 0.8 1.5 0.3 2 0.3 2 0.5
2015-04-26 L.A. Angels 0 0 3 0.7 -3 -0.4 1 0.1 0 0 -0.5 -0.1 1 0.2
2015-04-27 Seattle 2.25 0.7 7 1.5 0.5 0.1 12 1.1 2.75 0.6 2.25 0.3 3 0.7
2015-04-28 Seattle 0.25 0.1 3 0.7 -2 -0.3 2 0.2 0.5 0.1 0.25 0 1 0.2
2015-04-29 Seattle -1 -0.3 0 0 -4 -0.6 -4 -0.4 -0.5 -0.1 -0.75 -0.1 0 0
  FanDuel DraftKings FantasyFeud DraftDay FantasyAces Draftster FantasyScore
Date Opponent FP Value FP Value FP Value FP Value FP Value FP Value FP Value
2015-05-01 Oakland 7.5 2.4 19 4.3 7.5 1.1 38 4 8.5 1.8 8 1.2 8 1.7
2015-05-02 Oakland 4.5 1.5 12 2.7 3.5 0.5 23 2.4 5.5 1.1 5 0.8 5 1.1
2015-05-03 Oakland 3.75 1.1 10 2.3 2 0.3 19 2 4 0.8 4 0.6 4 0.9
2015-05-04 Houston 1.25 0.4 5 1.1 -1 -0.1 7 0.7 2 0.4 2 0.3 2 0.4
2015-05-05 Houston 3.25 1 9 2 3 0.4 17 1.6 4 0.8 3.25 0.5 4 0.9
2015-05-06 Houston 2.5 0.8 7 1.5 1 0.1 13 1.2 2.75 0.6 2.25 0.3 3 0.7
2015-05-07 Tampa Bay 1 0.3 5 1.2 -1 -0.1 6 0.6 1.75 0.4 1.25 0.2 2 0.4
2015-05-08 Tampa Bay 0.25 0.1 3 0.7 -2 -0.3 2 0.2 0 0 -0.5 -0.1 1 0.2
2015-05-09 Tampa Bay 1.25 0.4 6 1.5 -1 -0.1 7 0.6 2 0.4 2 0.3 2 0.4
2015-05-10 Tampa Bay 0.25 0.1 2 0.4 -2.5 -0.4 2 0.2 1 0.2 1 0.3 1 0.2
2015-05-11 Kansas City 6.25 2 17 3.8 5.5 0.8 32 3.2 7 1.4 6.25 0.9 7 1.5
2015-05-12 Kansas City 2.25 0.8 7 1.5 2 0.3 12 1.2 3.5 0.7 3 0.4 3 0.7
2015-05-13 Kansas City 8.75 2.8 22 5 10.5 1.4 44 4.3 9.75 2 9 1.3 9 2
2015-05-14 Kansas City 3.75 1.2 9 1.9 3 0.4 19 2 3.25 0.7 4 0.6 4 0.9
2015-05-15 Cleveland 7.25 2.2 18 3.8 7 0.9 37 3.7 8.25 1.7 8 1.2 8 1.7
2015-05-16 Cleveland 0 0 3 0.7 -3 -0.4 1 0.1 0 0 -0.5 -0.1 1 0.2
2015-05-17 Cleveland 3.5 1 10 2.3 3.5 0.4 18 1.7 4.5 0.9 4 0.6 4 0.9
2015-05-19 Boston 2.5 0.7 8 1.7 1 0.1 13 1.2 3 0.6 3 0.4 3 0.7
2015-05-20 Boston 1.5 0.4 5 1 -0.5 -0.1 8 0.7 2 0.4 2 0.3 2 0.4
2015-05-21 Boston -1 -0.3 0 0 -4 -0.5 -4 -0.4 -0.5 -0.1 -0.75 -0.1 0 0
2015-05-22 N.Y. Yankees 13.25 3.9 32 7 16 1.9 67 6.6 15.5 3 14 2 14 3
2015-05-23 N.Y. Yankees 12.75 3.9 30 5.9 16 2.1 64 6.7 14 2.7 12.25 1.8 13 2.8
2015-05-24 N.Y. Yankees 5.5 1.5 15 2.9 6 0.6 28 2.6 5.5 1 4.5 0.6 6 1.3
2015-05-25 Cleveland 12.5 3.1 30 5.9 15.5 1.7 63 5.7 14 2.5 12.25 1.8 13 2.8
2015-05-26 Cleveland 10.5 2.6 26 5.8 12.5 1.4 53 4.8 12 2.2 11 1.6 11 2.4
2015-05-27 Cleveland 0.25 0.1 3 0.6 -2 -0.2 2 0.2 0.5 0.1 0.25 0 1 0.2
2015-05-28 Boston -1 -0.2 0 0 -4 -0.4 -4 -0.3 -0.5 -0.1 -0.75 -0.1 0 0
2015-05-29 Boston 1.5 0.3 6 1.1 0 0 8 0.7 2 0.4 2 0.3 2 0.3
2015-05-30 Boston 1.25 0.3 5 1 -1.5 -0.2 7 0.6 1.5 0.3 2 0.3 2 0.3
2015-05-31 Boston 2.25 0.5 7 1.3 0 0 12 1 2.75 0.5 2.25 0.3 3 0.5
  FanDuel DraftKings FantasyFeud DraftDay FantasyAces Draftster FantasyScore
Date Opponent FP Value FP Value FP Value FP Value FP Value FP Value FP Value
2015-06-02 Chi. White Sox 2 0.5 7 1.5 0.5 0 11 1 3.5 0.6 3 0.4 3 0.5
2015-06-04 Chi. White Sox 3.5 0.9 10 1.9 2.5 0.2 18 1.6 3.75 0.7 3.25 0.5 4 0.7
2015-06-05 Kansas City -1 -0.3 0 0 -4 -0.4 -4 -0.4 -1 -0.2 -1.5 -0.2 0 0
2015-06-06 Kansas City 4.75 1.2 12 2.5 3.5 0.4 24 2.2 5.25 0.9 5 0.7 5 0.9
2015-06-07 Kansas City 2.5 0.7 7 1.5 0.5 0.1 13 1.3 3 0.5 3 0.4 3 0.5
2015-06-09 Oakland 1.25 0.3 5 1.2 0 0 7 0.7 2.25 0.4 2 0.3 2 0.3
2015-06-10 Oakland 1.25 0.3 4 0.9 -0.5 -0.1 7 0.7 0.75 0.1 0.5 0.1 2 0.3
2015-06-11 Oakland 0.5 0.1 2 0.4 -1.5 -0.2 3 0.3 1 0.2 1 0.2 1 0.2
2015-06-12 Minnesota 3.5 0.9 9 1.9 2.5 0.3 18 1.9 4.5 0.8 4 0.7 4 0.7
2015-06-13 Minnesota 3.25 0.9 10 2 2.5 0.3 17 1.8 4.5 0.8 4 0.5 4 0.7
2015-06-14 Minnesota 1.25 0.3 4 0.8 -0.5 -0.1 7 0.7 2.25 0.4 2 0.3 2 0.3
2015-06-15 L.A. Dodgers 2.25 0.6 7 1.5 1.5 0.2 12 1.2 3.5 0.6 3 0.4 3 0.5
2015-06-16 L.A. Dodgers 3.5 1 9 1.9 3 0.4 18 1.9 4.5 0.8 4 0.7 4 0.7
2015-06-17 L.A. Dodgers 8.5 2.4 21 5.8 9 1.1 43 4.4 9.75 1.7 9 1.5 9 1.6
2015-06-19 Chi. White Sox 1.5 0.4 5 1.2 -0.5 -0.1 8 0.8 1.5 0.3 1.25 0.2 2 0.4
2015-06-20 Chi. White Sox -1 -0.3 0 0 -4 -0.5 -4 -0.4 -1.5 -0.3 -2.25 -0.4 0 0
2015-06-21 Chi. White Sox 4.75 1.3 11 2.4 2.5 0.3 24 2.3 4.5 0.8 4.25 0.7 5 0.9
2015-06-23 Oakland 3.25 0.9 9 1.9 1 0.1 17 1.7 4.25 0.7 4 0.6 4 0.7
2015-06-24 Oakland 2.75 0.8 8 1.7 1.5 0.2 14 1.4 3 0.5 3 0.4 3 0.5
2015-06-25 Oakland 3.5 1 10 2.1 2.5 0.3 18 1.7 4.25 0.8 4 0.5 4 0.7
2015-06-26 Toronto 7.5 2.1 19 4 7.5 0.9 38 3.7 8.5 1.5 8 1.4 8 1.4
2015-06-27 Toronto 1.5 0.4 6 1.3 0 0 8 0.8 2 0.4 2 0.3 2 0.4
2015-06-28 Toronto 3.5 0.9 10 2.1 2 0.2 18 1.7 4.25 0.7 4 0.5 4 0.7
2015-06-29 Baltimore 1 0.3 5 1 -1.5 -0.2 6 0.6 2.25 0.4 2 0.3 2 0.4
2015-06-30 Baltimore 2.25 0.6 7 1.5 0.5 0.1 12 1.2 2.75 0.5 2.25 0.3 3 0.5
  FanDuel DraftKings FantasyFeud DraftDay FantasyAces Draftster FantasyScore
Date Opponent FP Value FP Value FP Value FP Value FP Value FP Value FP Value
2015-07-01 Baltimore -1 -0.3 0 0 -4 -0.5 -4 -0.4 -0.5 -0.1 -0.75 -0.1 0 0
2015-07-02 Baltimore 2.75 0.8 8 1.8 1.5 0.2 14 1.3 3 0.5 3 0.4 3 0.5
2015-07-03 L.A. Angels 3.5 1 10 2.3 2.5 0.3 18 1.8 4.25 0.8 4 0.5 4 0.7
2015-07-04 L.A. Angels 0.25 0.1 3 0.6 -2 -0.3 2 0.2 1 0.2 1 0.2 1 0.2
2015-07-05 L.A. Angels 6.25 1.8 17 3.7 5.5 0.7 32 3.2 7.5 1.3 7 1.1 7 1.2
2015-07-07 Arizona 0.25 0.1 2 0.4 -2.5 -0.3 2 0.2 1 0.2 1 0.2 1 0.2
2015-07-08 Arizona 2.25 0.6 8 1.7 1 0.1 12 1.2 3.25 0.6 3 0.4 3 0.5
2015-07-10 San Diego 6.5 1.9 16 3.4 7.5 0.9 33 3.5 7.75 1.4 7 0.9 7 1.2
2015-07-11 San Diego 1.25 0.4 5 1.2 0 0 7 0.7 2.25 0.4 2 0.3 2 0.3
2015-07-12 San Diego -1 -0.3 0 0 -4 -0.5 -4 -0.4 0 0 0 0 0 0
2015-07-17 Houston 1.25 0.4 6 1.3 -1 -0.1 7 0.7 2 0.4 2 0.3 2 0.3
2015-07-18 Houston 0 0 3 0.7 -3 -0.4 1 0.1 0.5 0.1 0.25 0 1 0.2
2015-07-19 Houston 1.25 0.4 5 0.9 -1 -0.1 7 0.7 1 0.2 0.5 0.1 2 0.3
2015-07-20 Colorado 6.5 1.5 16 3 8 0.9 33 3.4 8 1.4 7 1.1 7 1.2
2015-07-21 Colorado 7.5 1.7 19 3.7 7 0.8 38 4 8 1.4 7.25 0.9 8 1.4
2015-07-22 Colorado 1 0.2 2 0.4 0.5 0.1 5 0.5 1 0.2 1 0.2 1 0.2
2015-07-24 L.A. Angels 0.25 0.1 2 0.5 -2.5 -0.3 2 0.2 1 0.2 1 0.1 1 0.2
2015-07-25 L.A. Angels 1.25 0.3 5 1.2 -1.5 -0.2 7 0.7 1.5 0.3 1.25 0.2 2 0.3
2015-07-26 L.A. Angels 4.5 1.1 11 2.4 3 0.4 23 2.4 5 0.9 5 0.9 5 0.9
2015-07-27 N.Y. Yankees 0.25 0.1 3 0.7 -2 -0.3 2 0.2 0 0 -0.5 -0.1 1 0.2
2015-07-28 N.Y. Yankees 1.25 0.3 4 0.8 -1 -0.1 7 0.7 2.25 0.4 2 0.3 2 0.3
2015-07-29 N.Y. Yankees 2.5 0.7 7 1.7 1 0.1 13 1.3 3.25 0.6 3 0.4 3 0.5
2015-07-30 N.Y. Yankees 0 0 2 0.4 -2 -0.3 1 0.1 1.25 0.2 1 0.1 1 0.2
2015-07-31 San Francisco -1 -0.3 0 0 -4 -0.6 -4 -0.4 -1.5 -0.3 -2.25 -0.4 0 0
  FanDuel DraftKings FantasyFeud DraftDay FantasyAces Draftster FantasyScore
Date Opponent FP Value FP Value FP Value FP Value FP Value FP Value FP Value
2015-08-01 San Francisco 7.5 2 19 4.2 6.5 0.8 38 4.1 8 1.4 7.25 1 8 1.4
2015-08-02 San Francisco 0.25 0.1 3 0.7 -2 -0.3 2 0.2 1 0.2 1 0.1 1 0.2
2015-08-03 Houston 5.25 1.3 14 3 6 0.8 27 2.9 7 1.2 6 0.8 6 1
2015-08-04 Houston 5.25 1.4 14 3.3 4.5 0.7 27 2.9 6.5 1.2 6 0.8 6 1
2015-08-05 Houston 0.25 0.1 2 0.5 -1 -0.1 2 0.2 0.25 0 -0.5 -0.1 1 0.2
2015-08-07 Seattle -1 -0.3 0 0 -4 -0.5 -4 -0.4 -0.5 -0.1 -0.75 -0.1 0 0
2015-08-08 Seattle 10 2.6 25 5.7 11 1.5 51 5.3 11.75 2.1 10.25 1.7 11 1.8
2015-08-09 Seattle 2.5 0.7 8 2.2 0.5 0.1 13 1.4 3 0.5 3 0.4 3 0.5
2015-08-11 Minnesota 1.5 0.4 6 1.3 0 0 8 0.8 2 0.4 2 0.3 2 0.3
2015-08-12 Minnesota 1.5 0.4 5 1 1 0.1 8 0.8 2.25 0.4 2 0.3 2 0.3
2015-08-13 Minnesota 3.5 0.9 9 2 3 0.4 18 1.7 4.5 0.8 4 0.6 4 0.7
2015-08-14 Tampa Bay 0.25 0.1 2 0.4 -2.5 -0.3 2 0.2 0.5 0.1 0.25 0 1 0.2
2015-08-15 Tampa Bay 4.25 1.1 12 2.7 3.5 0.5 22 2.2 5.5 1 5 0.7 5 0.8
2015-08-16 Tampa Bay -1 -0.3 0 0 -4 -0.5 -4 -0.4 -0.5 -0.1 -0.75 -0.1 0 0
2015-08-17 Seattle 2.5 0.7 8 1.8 0.5 0.1 13 1.3 2 0.4 2.25 0.3 3 0.5
2015-08-18 Seattle 0.25 0.1 3 0.7 -2 -0.3 2 0.2 0.5 0.1 0.25 0 1 0.2
2015-08-20 Detroit -1 -0.3 0 0 -4 -0.5 -4 -0.4 0 0 0 0 0 0
2015-08-21 Detroit 1.5 0.4 5 1.2 1 0.1 8 0.9 2.25 0.4 2 0.3 2 0.3
2015-08-22 Detroit 2.25 0.7 7 1.6 1.5 0.2 12 1.4 3.5 0.6 3 0.5 3 0.5
2015-08-25 Toronto -1.25 -0.4 0 0 -5 -0.7 -5 -0.6 0 0 0 0 0 0
2015-08-26 Toronto 0.25 0.1 3 0.8 -2 -0.3 2 0.2 1 0.2 1 0.2 1 0.2
2015-08-27 Toronto 0.25 0.1 3 0.8 -2 -0.3 2 0.2 0 0 -0.5 -0.1 1 0.2
2015-08-28 Baltimore 0.25 0.1 3 0.8 -2 -0.3 2 0.2 1 0.2 1 0.2 1 0.2
2015-08-29 Baltimore 0.25 0.1 3 0.7 -2 -0.3 2 0.2 1 0.2 1 0.1 1 0.2
2015-08-30 Baltimore 1.5 0.5 6 1.7 0 0 8 1 2 0.4 2 0.3 2 0.4
2015-08-31 San Diego 2.5 0.9 7 2 0.5 0.1 13 1.6 2.5 0.5 3 0.4 3 0.5

Player History

Year Age Team G PA H HR RBI SB BA
2015 31 Texas 127 553 157 18 73 0 0.317
2014 30 Texas 42 178 37 3 16 0 0.247
2013 29 Detroit 162 712 174 25 106 1 0.279
2012 28 Detroit 162 690 182 30 108 1 0.313
2011 27 Milwaukee 162 692 170 38 120 1 0.299
2010 26 Milwaukee 161 714 151 32 83 1 0.261
2009 25 Milwaukee 162 719 177 46 141 2 0.299
2008 24 Milwaukee 159 694 162 34 102 3 0.276
2007 23 Milwaukee 158 681 165 50 119 2 0.288
2006 22 Milwaukee 157 648 154 28 81 7 0.271
2005 21 Milwaukee 39 62 17 2 10 0 0.288
Similar Players

Similar Players

Sorry! We don't enough data on this player to make significant comparisons. This is likely due to the fact that this player is new to the league, or is an unknown commodity in terms of talent.